sensor_id;sensor_type;location;lat;lon;timestamp;temperature;humidity
33901;DHT22;20193;49.810;6.418;2022-09-17T00:00:34;9.60;98.30
33901;DHT22;20193;49.810;6.418;2022-09-17T00:03:01;9.60;98.30
33901;DHT22;20193;49.810;6.418;2022-09-17T00:05:27;9.60;98.40
33901;DHT22;20193;49.810;6.418;2022-09-17T00:07:52;9.50;98.40
33901;DHT22;20193;49.810;6.418;2022-09-17T00:10:19;9.50;98.50
33901;DHT22;20193;49.810;6.418;2022-09-17T00:12:45;9.50;98.50
33901;DHT22;20193;49.810;6.418;2022-09-17T00:15:11;9.50;98.60
33901;DHT22;20193;49.810;6.418;2022-09-17T00:17:37;9.60;98.60
33901;DHT22;20193;49.810;6.418;2022-09-17T00:20:04;9.50;98.70
33901;DHT22;20193;49.810;6.418;2022-09-17T00:22:32;9.50;98.70
33901;DHT22;20193;49.810;6.418;2022-09-17T00:24:58;9.40;98.70
33901;DHT22;20193;49.810;6.418;2022-09-17T00:27:23;9.40;98.70
33901;DHT22;20193;49.810;6.418;2022-09-17T00:29:49;9.40;98.70
33901;DHT22;20193;49.810;6.418;2022-09-17T00:32:14;9.30;98.70
33901;DHT22;20193;49.810;6.418;2022-09-17T00:34:41;9.30;98.70
33901;DHT22;20193;49.810;6.418;2022-09-17T00:37:07;9.30;98.80
33901;DHT22;20193;49.810;6.418;2022-09-17T00:39:32;9.20;98.70
33901;DHT22;20193;49.810;6.418;2022-09-17T00:41:58;9.20;98.70
33901;DHT22;20193;49.810;6.418;2022-09-17T00:45:03;9.20;98.80
33901;DHT22;20193;49.810;6.418;2022-09-17T00:47:36;9.10;98.80
33901;DHT22;20193;49.810;6.418;2022-09-17T00:52:40;9.10;98.80
33901;DHT22;20193;49.810;6.418;2022-09-17T00:55:13;9.00;98.70
33901;DHT22;20193;49.810;6.418;2022-09-17T00:57:40;8.90;98.70
33901;DHT22;20193;49.810;6.418;2022-09-17T01:00:07;8.90;98.70
33901;DHT22;20193;49.810;6.418;2022-09-17T01:02:34;8.90;98.80
33901;DHT22;20193;49.810;6.418;2022-09-17T01:04:59;8.80;98.70
33901;DHT22;20193;49.810;6.418;2022-09-17T01:10:38;8.80;98.90
33901;DHT22;20193;49.810;6.418;2022-09-17T01:13:18;8.80;99.00
33901;DHT22;20193;49.810;6.418;2022-09-17T01:16:05;8.80;99.30
33901;DHT22;20193;49.810;6.418;2022-09-17T01:21:32;8.80;99.40
33901;DHT22;20193;49.810;6.418;2022-09-17T01:32:19;8.90;99.60
33901;DHT22;20193;49.810;6.418;2022-09-17T01:35:17;8.90;99.70
33901;DHT22;20193;49.810;6.418;2022-09-17T01:46:34;8.90;99.70
33901;DHT22;20193;49.810;6.418;2022-09-17T01:48:44;8.90;99.80
33901;DHT22;20193;49.810;6.418;2022-09-17T01:51:21;8.90;99.80
33901;DHT22;20193;49.810;6.418;2022-09-17T01:54:03;8.90;99.90
33901;DHT22;20193;49.810;6.418;2022-09-17T01:56:35;8.90;99.90
33901;DHT22;20193;49.810;6.418;2022-09-17T01:59:14;8.90;99.90
33901;DHT22;20193;49.810;6.418;2022-09-17T02:01:42;8.90;99.90
33901;DHT22;20193;49.810;6.418;2022-09-17T02:04:19;8.90;99.90
33901;DHT22;20193;49.810;6.418;2022-09-17T02:06:52;8.90;99.90
33901;DHT22;20193;49.810;6.418;2022-09-17T02:09:35;8.90;99.90
33901;DHT22;20193;49.810;6.418;2022-09-17T02:12:05;9.00;99.90
33901;DHT22;20193;49.810;6.418;2022-09-17T02:14:40;9.00;99.90
33901;DHT22;20193;49.810;6.418;2022-09-17T02:17:15;9.00;99.90
33901;DHT22;20193;49.810;6.418;2022-09-17T02:19:44;9.10;99.90
33901;DHT22;20193;49.810;6.418;2022-09-17T02:22:29;9.10;99.90
33901;DHT22;20193;49.810;6.418;2022-09-17T02:25:05;9.20;99.90
33901;DHT22;20193;49.810;6.418;2022-09-17T02:27:52;9.20;99.90
33901;DHT22;20193;49.810;6.418;2022-09-17T02:30:22;9.20;99.90
33901;DHT22;20193;49.810;6.418;2022-09-17T02:32:47;9.30;99.90
33901;DHT22;20193;49.810;6.418;2022-09-17T02:35:14;9.30;99.90
33901;DHT22;20193;49.810;6.418;2022-09-17T02:37:41;9.30;99.90
33901;DHT22;20193;49.810;6.418;2022-09-17T02:40:09;9.30;99.90
33901;DHT22;20193;49.810;6.418;2022-09-17T02:45:48;9.40;99.90
33901;DHT22;20193;49.810;6.418;2022-09-17T02:48:30;9.40;99.90
33901;DHT22;20193;49.810;6.418;2022-09-17T02:51:32;9.40;99.90
33901;DHT22;20193;49.810;6.418;2022-09-17T02:54:11;9.40;99.90
33901;DHT22;20193;49.810;6.418;2022-09-17T02:57:04;9.40;99.90
33901;DHT22;20193;49.810;6.418;2022-09-17T02:59:57;9.50;99.90
33901;DHT22;20193;49.810;6.418;2022-09-17T03:02:33;9.40;99.90
33901;DHT22;20193;49.810;6.418;2022-09-17T03:05:01;9.50;99.90
33901;DHT22;20193;49.810;6.418;2022-09-17T03:07:27;9.50;99.90
33901;DHT22;20193;49.810;6.418;2022-09-17T03:09:53;9.50;99.90
33901;DHT22;20193;49.810;6.418;2022-09-17T03:12:19;9.50;99.90
33901;DHT22;20193;49.810;6.418;2022-09-17T03:14:45;9.50;99.90
33901;DHT22;20193;49.810;6.418;2022-09-17T03:17:11;9.60;99.90
33901;DHT22;20193;49.810;6.418;2022-09-17T03:19:37;9.60;99.90
33901;DHT22;20193;49.810;6.418;2022-09-17T03:22:02;9.70;99.90
33901;DHT22;20193;49.810;6.418;2022-09-17T03:24:28;9.70;99.90
33901;DHT22;20193;49.810;6.418;2022-09-17T03:26:54;9.80;99.90
33901;DHT22;20193;49.810;6.418;2022-09-17T03:29:19;9.80;99.90
33901;DHT22;20193;49.810;6.418;2022-09-17T03:31:45;9.90;99.90
33901;DHT22;20193;49.810;6.418;2022-09-17T03:34:11;9.90;99.90
33901;DHT22;20193;49.810;6.418;2022-09-17T03:36:36;9.90;99.90
33901;DHT22;20193;49.810;6.418;2022-09-17T03:39:02;10.00;99.90
33901;DHT22;20193;49.810;6.418;2022-09-17T03:41:28;10.10;99.90
33901;DHT22;20193;49.810;6.418;2022-09-17T03:43:54;10.10;99.90
33901;DHT22;20193;49.810;6.418;2022-09-17T03:46:20;10.10;99.90
33901;DHT22;20193;49.810;6.418;2022-09-17T03:48:45;10.20;99.90
33901;DHT22;20193;49.810;6.418;2022-09-17T03:51:11;10.20;99.90
33901;DHT22;20193;49.810;6.418;2022-09-17T03:53:37;10.30;99.90
33901;DHT22;20193;49.810;6.418;2022-09-17T03:56:04;10.30;99.90
33901;DHT22;20193;49.810;6.418;2022-09-17T03:58:30;10.30;99.90
33901;DHT22;20193;49.810;6.418;2022-09-17T04:00:56;10.40;99.90
33901;DHT22;20193;49.810;6.418;2022-09-17T04:03:26;10.40;99.90
33901;DHT22;20193;49.810;6.418;2022-09-17T04:05:52;10.50;99.90
33901;DHT22;20193;49.810;6.418;2022-09-17T04:08:18;10.50;99.90
33901;DHT22;20193;49.810;6.418;2022-09-17T04:10:45;10.50;99.90
33901;DHT22;20193;49.810;6.418;2022-09-17T04:13:11;10.60;99.90
33901;DHT22;20193;49.810;6.418;2022-09-17T04:15:38;10.60;99.90
33901;DHT22;20193;49.810;6.418;2022-09-17T04:18:04;10.60;99.90
33901;DHT22;20193;49.810;6.418;2022-09-17T04:20:29;10.70;99.90
33901;DHT22;20193;49.810;6.418;2022-09-17T04:22:55;10.70;99.90
33901;DHT22;20193;49.810;6.418;2022-09-17T04:25:21;10.70;99.90
33901;DHT22;20193;49.810;6.418;2022-09-17T04:27:46;10.80;99.90
33901;DHT22;20193;49.810;6.418;2022-09-17T04:30:13;10.80;99.90
33901;DHT22;20193;49.810;6.418;2022-09-17T04:32:39;10.90;99.90
33901;DHT22;20193;49.810;6.418;2022-09-17T04:35:05;10.90;99.90
33901;DHT22;20193;49.810;6.418;2022-09-17T04:37:31;10.90;99.90
33901;DHT22;20193;49.810;6.418;2022-09-17T04:39:56;10.90;99.90
33901;DHT22;20193;49.810;6.418;2022-09-17T04:42:22;10.90;99.90
33901;DHT22;20193;49.810;6.418;2022-09-17T04:44:48;11.00;99.90
33901;DHT22;20193;49.810;6.418;2022-09-17T04:47:13;11.00;99.90
33901;DHT22;20193;49.810;6.418;2022-09-17T04:49:39;11.00;99.90
33901;DHT22;20193;49.810;6.418;2022-09-17T04:52:04;11.00;99.90
33901;DHT22;20193;49.810;6.418;2022-09-17T04:54:30;11.00;99.90
33901;DHT22;20193;49.810;6.418;2022-09-17T04:56:56;11.00;99.90
33901;DHT22;20193;49.810;6.418;2022-09-17T04:59:22;11.00;99.90
33901;DHT22;20193;49.810;6.418;2022-09-17T05:01:48;11.00;99.90
33901;DHT22;20193;49.810;6.418;2022-09-17T05:04:14;11.00;99.90
33901;DHT22;20193;49.810;6.418;2022-09-17T05:06:39;11.00;99.90
33901;DHT22;20193;49.810;6.418;2022-09-17T05:09:05;11.00;99.90
33901;DHT22;20193;49.810;6.418;2022-09-17T05:11:31;11.00;99.90
33901;DHT22;20193;49.810;6.418;2022-09-17T05:13:57;11.00;99.90
33901;DHT22;20193;49.810;6.418;2022-09-17T05:16:22;11.00;99.90
33901;DHT22;20193;49.810;6.418;2022-09-17T05:18:48;11.00;99.90
33901;DHT22;20193;49.810;6.418;2022-09-17T05:21:16;11.00;99.90
33901;DHT22;20193;49.810;6.418;2022-09-17T05:23:42;11.00;99.90
33901;DHT22;20193;49.810;6.418;2022-09-17T05:26:07;11.00;99.90
33901;DHT22;20193;49.810;6.418;2022-09-17T05:28:33;11.10;99.90
33901;DHT22;20193;49.810;6.418;2022-09-17T05:30:59;11.10;99.90
33901;DHT22;20193;49.810;6.418;2022-09-17T05:33:25;11.10;99.90
33901;DHT22;20193;49.810;6.418;2022-09-17T05:35:50;11.10;99.90
33901;DHT22;20193;49.810;6.418;2022-09-17T05:38:16;11.10;99.90
33901;DHT22;20193;49.810;6.418;2022-09-17T05:40:43;11.20;99.90
33901;DHT22;20193;49.810;6.418;2022-09-17T05:43:09;11.20;99.90
33901;DHT22;20193;49.810;6.418;2022-09-17T05:45:36;11.30;99.90
33901;DHT22;20193;49.810;6.418;2022-09-17T05:48:03;11.30;99.90
33901;DHT22;20193;49.810;6.418;2022-09-17T05:50:30;11.40;99.90
33901;DHT22;20193;49.810;6.418;2022-09-17T05:52:56;11.40;99.90
33901;DHT22;20193;49.810;6.418;2022-09-17T05:55:22;11.40;99.90
33901;DHT22;20193;49.810;6.418;2022-09-17T05:57:49;11.40;99.90
33901;DHT22;20193;49.810;6.418;2022-09-17T06:00:15;11.50;99.90
33901;DHT22;20193;49.810;6.418;2022-09-17T06:02:41;11.50;99.90
33901;DHT22;20193;49.810;6.418;2022-09-17T06:05:07;11.60;99.90
33901;DHT22;20193;49.810;6.418;2022-09-17T06:07:36;11.60;99.90
33901;DHT22;20193;49.810;6.418;2022-09-17T06:10:04;11.60;99.90
33901;DHT22;20193;49.810;6.418;2022-09-17T06:12:30;11.60;99.90
33901;DHT22;20193;49.810;6.418;2022-09-17T06:14:55;11.60;99.90
33901;DHT22;20193;49.810;6.418;2022-09-17T06:17:21;11.70;99.90
33901;DHT22;20193;49.810;6.418;2022-09-17T06:19:46;11.60;99.90
33901;DHT22;20193;49.810;6.418;2022-09-17T06:22:12;11.70;99.90
33901;DHT22;20193;49.810;6.418;2022-09-17T06:24:37;11.70;99.90
33901;DHT22;20193;49.810;6.418;2022-09-17T06:27:03;11.80;99.90
33901;DHT22;20193;49.810;6.418;2022-09-17T06:29:29;11.80;99.90
33901;DHT22;20193;49.810;6.418;2022-09-17T06:31:55;11.90;99.90
33901;DHT22;20193;49.810;6.418;2022-09-17T06:34:20;11.90;99.90
33901;DHT22;20193;49.810;6.418;2022-09-17T06:36:47;11.90;99.90
33901;DHT22;20193;49.810;6.418;2022-09-17T06:39:13;12.10;99.90
33901;DHT22;20193;49.810;6.418;2022-09-17T06:41:40;12.30;99.90
33901;DHT22;20193;49.810;6.418;2022-09-17T06:44:08;12.50;99.90
33901;DHT22;20193;49.810;6.418;2022-09-17T06:46:34;12.70;99.90
33901;DHT22;20193;49.810;6.418;2022-09-17T06:49:00;13.00;99.90
33901;DHT22;20193;49.810;6.418;2022-09-17T06:51:26;13.20;99.90
33901;DHT22;20193;49.810;6.418;2022-09-17T06:53:51;13.40;99.90
33901;DHT22;20193;49.810;6.418;2022-09-17T06:56:17;13.60;99.90
33901;DHT22;20193;49.810;6.418;2022-09-17T06:58:43;13.80;99.90
33901;DHT22;20193;49.810;6.418;2022-09-17T07:01:12;14.10;99.80
33901;DHT22;20193;49.810;6.418;2022-09-17T07:03:38;14.40;99.30
33901;DHT22;20193;49.810;6.418;2022-09-17T07:06:06;14.70;99.20
33901;DHT22;20193;49.810;6.418;2022-09-17T07:08:34;15.00;98.70
33901;DHT22;20193;49.810;6.418;2022-09-17T07:10:59;15.30;97.70
33901;DHT22;20193;49.810;6.418;2022-09-17T07:13:25;15.60;96.90
33901;DHT22;20193;49.810;6.418;2022-09-17T07:15:55;15.90;96.10
33901;DHT22;20193;49.810;6.418;2022-09-17T07:18:22;16.10;95.10
33901;DHT22;20193;49.810;6.418;2022-09-17T07:20:55;16.40;95.20
33901;DHT22;20193;49.810;6.418;2022-09-17T07:23:25;16.80;94.30
33901;DHT22;20193;49.810;6.418;2022-09-17T07:25:56;17.00;93.00
33901;DHT22;20193;49.810;6.418;2022-09-17T07:28:23;17.20;91.60
33901;DHT22;20193;49.810;6.418;2022-09-17T07:30:50;17.30;90.30
33901;DHT22;20193;49.810;6.418;2022-09-17T07:33:18;17.40;90.10
33901;DHT22;20193;49.810;6.418;2022-09-17T07:36:09;17.30;88.70
33901;DHT22;20193;49.810;6.418;2022-09-17T07:38:35;17.20;88.10
33901;DHT22;20193;49.810;6.418;2022-09-17T07:41:03;17.10;89.50
33901;DHT22;20193;49.810;6.418;2022-09-17T07:43:31;16.70;87.70
33901;DHT22;20193;49.810;6.418;2022-09-17T07:45:58;16.60;90.00
33901;DHT22;20193;49.810;6.418;2022-09-17T07:48:25;16.50;90.00
33901;DHT22;20193;49.810;6.418;2022-09-17T07:50:51;16.40;89.20
33901;DHT22;20193;49.810;6.418;2022-09-17T07:53:17;16.30;89.90
33901;DHT22;20193;49.810;6.418;2022-09-17T07:55:53;16.20;90.10
33901;DHT22;20193;49.810;6.418;2022-09-17T07:58:20;16.20;90.10
33901;DHT22;20193;49.810;6.418;2022-09-17T08:00:46;16.20;90.00
33901;DHT22;20193;49.810;6.418;2022-09-17T08:03:13;16.20;89.40
33901;DHT22;20193;49.810;6.418;2022-09-17T08:05:38;16.20;89.00
33901;DHT22;20193;49.810;6.418;2022-09-17T08:08:04;16.20;89.20
33901;DHT22;20193;49.810;6.418;2022-09-17T08:10:30;16.20;89.70
33901;DHT22;20193;49.810;6.418;2022-09-17T08:12:56;16.20;89.10
33901;DHT22;20193;49.810;6.418;2022-09-17T08:15:22;16.10;87.20
33901;DHT22;20193;49.810;6.418;2022-09-17T08:17:49;16.10;87.60
33901;DHT22;20193;49.810;6.418;2022-09-17T08:20:16;16.10;87.20
33901;DHT22;20193;49.810;6.418;2022-09-17T08:22:42;16.10;87.90
33901;DHT22;20193;49.810;6.418;2022-09-17T08:25:08;15.90;86.70
33901;DHT22;20193;49.810;6.418;2022-09-17T08:27:35;15.80;87.90
33901;DHT22;20193;49.810;6.418;2022-09-17T08:30:04;15.90;88.30
33901;DHT22;20193;49.810;6.418;2022-09-17T08:32:29;15.90;88.80
33901;DHT22;20193;49.810;6.418;2022-09-17T08:34:55;15.90;88.60
33901;DHT22;20193;49.810;6.418;2022-09-17T08:37:21;15.90;88.80
33901;DHT22;20193;49.810;6.418;2022-09-17T08:39:47;15.90;88.40
33901;DHT22;20193;49.810;6.418;2022-09-17T08:42:40;15.90;87.70
33901;DHT22;20193;49.810;6.418;2022-09-17T08:45:11;15.90;87.30
33901;DHT22;20193;49.810;6.418;2022-09-17T08:47:40;15.90;87.90
33901;DHT22;20193;49.810;6.418;2022-09-17T08:50:28;15.90;88.20
33901;DHT22;20193;49.810;6.418;2022-09-17T09:01:06;16.20;88.50
33901;DHT22;20193;49.810;6.418;2022-09-17T09:03:55;16.30;88.20
33901;DHT22;20193;49.810;6.418;2022-09-17T09:06:27;16.50;87.20
33901;DHT22;20193;49.810;6.418;2022-09-17T09:09:02;16.60;86.50
33901;DHT22;20193;49.810;6.418;2022-09-17T09:11:30;16.70;85.50
33901;DHT22;20193;49.810;6.418;2022-09-17T09:14:06;16.70;85.20
33901;DHT22;20193;49.810;6.418;2022-09-17T09:16:37;16.80;86.00
33901;DHT22;20193;49.810;6.418;2022-09-17T09:19:20;16.90;86.30
33901;DHT22;20193;49.810;6.418;2022-09-17T09:22:31;17.00;85.50
33901;DHT22;20193;49.810;6.418;2022-09-17T09:24:44;17.10;85.30
33901;DHT22;20193;49.810;6.418;2022-09-17T09:27:17;17.20;83.30
33901;DHT22;20193;49.810;6.418;2022-09-17T09:30:09;17.20;82.70
33901;DHT22;20193;49.810;6.418;2022-09-17T09:35:23;17.20;81.50
33901;DHT22;20193;49.810;6.418;2022-09-17T09:37:55;17.20;82.20
33901;DHT22;20193;49.810;6.418;2022-09-17T09:40:29;17.30;82.40
33901;DHT22;20193;49.810;6.418;2022-09-17T09:43:00;17.40;82.90
33901;DHT22;20193;49.810;6.418;2022-09-17T09:51:24;17.60;82.20
33901;DHT22;20193;49.810;6.418;2022-09-17T09:56:57;17.60;80.70
33901;DHT22;20193;49.810;6.418;2022-09-17T09:59:25;17.60;80.50
33901;DHT22;20193;49.810;6.418;2022-09-17T10:01:51;17.70;81.30
33901;DHT22;20193;49.810;6.418;2022-09-17T10:04:22;17.80;81.60
33901;DHT22;20193;49.810;6.418;2022-09-17T10:06:51;17.80;79.80
33901;DHT22;20193;49.810;6.418;2022-09-17T10:09:19;17.90;79.50
33901;DHT22;20193;49.810;6.418;2022-09-17T10:12:16;17.90;78.20
33901;DHT22;20193;49.810;6.418;2022-09-17T10:14:44;17.70;78.50
33901;DHT22;20193;49.810;6.418;2022-09-17T10:19:44;17.60;78.60
33901;DHT22;20193;49.810;6.418;2022-09-17T10:22:34;17.60;78.60
33901;DHT22;20193;49.810;6.418;2022-09-17T10:25:01;17.60;78.50
33901;DHT22;20193;49.810;6.418;2022-09-17T10:27:28;17.60;78.90
33901;DHT22;20193;49.810;6.418;2022-09-17T10:30:12;17.50;77.10
33901;DHT22;20193;49.810;6.418;2022-09-17T10:32:39;17.60;76.30
33901;DHT22;20193;49.810;6.418;2022-09-17T10:37:44;17.60;75.40
33901;DHT22;20193;49.810;6.418;2022-09-17T10:40:31;17.60;75.60
33901;DHT22;20193;49.810;6.418;2022-09-17T10:45:44;17.60;75.90
33901;DHT22;20193;49.810;6.418;2022-09-17T10:48:17;17.60;75.80
33901;DHT22;20193;49.810;6.418;2022-09-17T10:51:04;17.70;75.80
33901;DHT22;20193;49.810;6.418;2022-09-17T10:53:39;17.70;75.60
33901;DHT22;20193;49.810;6.418;2022-09-17T10:56:34;17.80;76.20
33901;DHT22;20193;49.810;6.418;2022-09-17T11:07:46;17.40;87.60
33901;DHT22;20193;49.810;6.418;2022-09-17T11:10:33;17.10;87.60
33901;DHT22;20193;49.810;6.418;2022-09-17T11:13:11;16.80;89.20
33901;DHT22;20193;49.810;6.418;2022-09-17T11:16:13;16.60;90.00
33901;DHT22;20193;49.810;6.418;2022-09-17T11:18:48;16.30;90.40
33901;DHT22;20193;49.810;6.418;2022-09-17T11:21:42;16.10;90.50
33901;DHT22;20193;49.810;6.418;2022-09-17T11:24:54;15.80;89.60
33901;DHT22;20193;49.810;6.418;2022-09-17T11:27:36;15.60;90.80
33901;DHT22;20193;49.810;6.418;2022-09-17T11:35:40;15.20;91.40
33901;DHT22;20193;49.810;6.418;2022-09-17T11:38:38;15.10;91.50
33901;DHT22;20193;49.810;6.418;2022-09-17T11:41:35;15.00;91.40
33901;DHT22;20193;49.810;6.418;2022-09-17T11:44:29;15.00;91.60
33901;DHT22;20193;49.810;6.418;2022-09-17T11:47:08;15.00;91.60
33901;DHT22;20193;49.810;6.418;2022-09-17T11:49:45;15.00;91.70
33901;DHT22;20193;49.810;6.418;2022-09-17T11:52:30;15.10;91.80
33901;DHT22;20193;49.810;6.418;2022-09-17T11:57:31;15.10;91.40
33901;DHT22;20193;49.810;6.418;2022-09-17T12:00:05;15.10;91.80
33901;DHT22;20193;49.810;6.418;2022-09-17T12:02:54;15.00;91.50
33901;DHT22;20193;49.810;6.418;2022-09-17T12:05:28;14.90;91.00
33901;DHT22;20193;49.810;6.418;2022-09-17T12:10:40;14.70;91.30
33901;DHT22;20193;49.810;6.418;2022-09-17T12:18:50;14.70;91.60
33901;DHT22;20193;49.810;6.418;2022-09-17T12:21:24;14.80;91.70
33901;DHT22;20193;49.810;6.418;2022-09-17T12:24:11;14.80;91.50
33901;DHT22;20193;49.810;6.418;2022-09-17T12:32:40;15.20;90.70
33901;DHT22;20193;49.810;6.418;2022-09-17T12:46:46;15.70;88.80
33901;DHT22;20193;49.810;6.418;2022-09-17T12:52:28;16.10;86.70
33901;DHT22;20193;49.810;6.418;2022-09-17T12:55:07;16.20;86.10
33901;DHT22;20193;49.810;6.418;2022-09-17T13:00:14;16.50;83.90
33901;DHT22;20193;49.810;6.418;2022-09-17T13:11:11;16.90;81.40
33901;DHT22;20193;49.810;6.418;2022-09-17T13:16:25;17.00;79.70
33901;DHT22;20193;49.810;6.418;2022-09-17T13:22:04;17.10;81.00
33901;DHT22;20193;49.810;6.418;2022-09-17T13:24:32;17.10;80.00
33901;DHT22;20193;49.810;6.418;2022-09-17T13:27:01;17.00;80.00
33901;DHT22;20193;49.810;6.418;2022-09-17T13:32:08;16.90;79.30
33901;DHT22;20193;49.810;6.418;2022-09-17T13:34:34;16.90;79.60
33901;DHT22;20193;49.810;6.418;2022-09-17T13:37:05;16.80;79.60
33901;DHT22;20193;49.810;6.418;2022-09-17T13:39:42;16.90;79.60
33901;DHT22;20193;49.810;6.418;2022-09-17T13:42:24;16.90;78.30
33901;DHT22;20193;49.810;6.418;2022-09-17T13:45:09;16.80;78.20
33901;DHT22;20193;49.810;6.418;2022-09-17T13:47:37;16.90;78.80
33901;DHT22;20193;49.810;6.418;2022-09-17T13:50:09;16.90;79.10
33901;DHT22;20193;49.810;6.418;2022-09-17T13:52:43;16.80;78.00
33901;DHT22;20193;49.810;6.418;2022-09-17T13:55:37;16.90;77.90
33901;DHT22;20193;49.810;6.418;2022-09-17T13:58:12;16.90;78.30
33901;DHT22;20193;49.810;6.418;2022-09-17T14:30:20;17.30;79.00
33901;DHT22;20193;49.810;6.418;2022-09-17T14:40:33;17.30;79.20
33901;DHT22;20193;49.810;6.418;2022-09-17T14:42:59;17.30;79.70
33901;DHT22;20193;49.810;6.418;2022-09-17T14:45:31;17.40;79.50
33901;DHT22;20193;49.810;6.418;2022-09-17T14:50:48;17.40;79.60
33901;DHT22;20193;49.810;6.418;2022-09-17T14:53:16;17.40;79.10
33901;DHT22;20193;49.810;6.418;2022-09-17T14:55:45;17.40;79.00
33901;DHT22;20193;49.810;6.418;2022-09-17T14:58:39;17.40;79.40
33901;DHT22;20193;49.810;6.418;2022-09-17T15:01:23;17.30;78.80
33901;DHT22;20193;49.810;6.418;2022-09-17T15:03:49;17.30;79.20
33901;DHT22;20193;49.810;6.418;2022-09-17T15:06:22;17.40;79.80
33901;DHT22;20193;49.810;6.418;2022-09-17T15:08:47;17.40;79.40
33901;DHT22;20193;49.810;6.418;2022-09-17T15:11:13;17.40;79.20
33901;DHT22;20193;49.810;6.418;2022-09-17T15:13:52;17.40;79.40
33901;DHT22;20193;49.810;6.418;2022-09-17T15:16:22;17.30;79.10
33901;DHT22;20193;49.810;6.418;2022-09-17T15:18:57;17.40;79.40
33901;DHT22;20193;49.810;6.418;2022-09-17T15:21:43;17.40;79.70
33901;DHT22;20193;49.810;6.418;2022-09-17T15:24:34;17.40;79.90
33901;DHT22;20193;49.810;6.418;2022-09-17T15:27:12;17.40;79.00
33901;DHT22;20193;49.810;6.418;2022-09-17T15:29:42;17.40;79.00
33901;DHT22;20193;49.810;6.418;2022-09-17T15:32:11;17.30;78.70
33901;DHT22;20193;49.810;6.418;2022-09-17T15:34:37;17.10;78.30
33901;DHT22;20193;49.810;6.418;2022-09-17T15:39:42;16.90;79.00
33901;DHT22;20193;49.810;6.418;2022-09-17T15:42:20;16.80;79.30
33901;DHT22;20193;49.810;6.418;2022-09-17T15:44:46;16.70;79.00
33901;DHT22;20193;49.810;6.418;2022-09-17T15:47:50;16.60;79.30
33901;DHT22;20193;49.810;6.418;2022-09-17T15:50:19;16.50;79.80
33901;DHT22;20193;49.810;6.418;2022-09-17T15:52:46;16.50;80.10
33901;DHT22;20193;49.810;6.418;2022-09-17T15:55:28;16.40;80.10
33901;DHT22;20193;49.810;6.418;2022-09-17T15:57:54;16.30;80.00
33901;DHT22;20193;49.810;6.418;2022-09-17T16:00:20;16.30;80.00
33901;DHT22;20193;49.810;6.418;2022-09-17T16:02:46;16.10;80.00
33901;DHT22;20193;49.810;6.418;2022-09-17T16:07:44;15.90;80.90
33901;DHT22;20193;49.810;6.418;2022-09-17T16:10:11;15.90;81.30
33901;DHT22;20193;49.810;6.418;2022-09-17T16:12:37;15.90;81.50
33901;DHT22;20193;49.810;6.418;2022-09-17T16:15:03;15.90;82.00
33901;DHT22;20193;49.810;6.418;2022-09-17T16:20:14;16.00;82.90
33901;DHT22;20193;49.810;6.418;2022-09-17T16:22:41;16.00;82.30
33901;DHT22;20193;49.810;6.418;2022-09-17T16:25:07;16.00;81.60
33901;DHT22;20193;49.810;6.418;2022-09-17T16:30:19;16.00;81.90
33901;DHT22;20193;49.810;6.418;2022-09-17T16:32:45;16.00;82.40
33901;DHT22;20193;49.810;6.418;2022-09-17T16:35:16;16.00;82.90
33901;DHT22;20193;49.810;6.418;2022-09-17T16:37:42;16.00;83.60
33901;DHT22;20193;49.810;6.418;2022-09-17T16:40:10;16.00;83.70
33901;DHT22;20193;49.810;6.418;2022-09-17T16:42:37;16.00;84.10
33901;DHT22;20193;49.810;6.418;2022-09-17T16:45:03;16.00;84.50
33901;DHT22;20193;49.810;6.418;2022-09-17T16:47:33;16.10;85.10
33901;DHT22;20193;49.810;6.418;2022-09-17T16:50:02;16.10;85.30
33901;DHT22;20193;49.810;6.418;2022-09-17T16:52:28;16.10;85.30
33901;DHT22;20193;49.810;6.418;2022-09-17T16:54:54;16.10;85.30
33901;DHT22;20193;49.810;6.418;2022-09-17T16:57:19;16.00;85.30
33901;DHT22;20193;49.810;6.418;2022-09-17T16:59:45;16.10;85.50
33901;DHT22;20193;49.810;6.418;2022-09-17T17:02:11;16.00;85.40
33901;DHT22;20193;49.810;6.418;2022-09-17T17:04:36;16.00;85.50
33901;DHT22;20193;49.810;6.418;2022-09-17T17:07:02;16.00;85.40
33901;DHT22;20193;49.810;6.418;2022-09-17T17:09:27;15.90;85.10
33901;DHT22;20193;49.810;6.418;2022-09-17T17:11:53;15.90;85.30
33901;DHT22;20193;49.810;6.418;2022-09-17T17:14:19;15.80;85.50
33901;DHT22;20193;49.810;6.418;2022-09-17T17:16:45;15.70;85.70
33901;DHT22;20193;49.810;6.418;2022-09-17T17:19:10;15.70;85.90
33901;DHT22;20193;49.810;6.418;2022-09-17T17:21:36;15.60;85.70
33901;DHT22;20193;49.810;6.418;2022-09-17T17:24:02;15.60;85.90
33901;DHT22;20193;49.810;6.418;2022-09-17T17:26:27;15.50;85.40
33901;DHT22;20193;49.810;6.418;2022-09-17T17:28:53;15.40;85.10
33901;DHT22;20193;49.810;6.418;2022-09-17T17:31:19;15.20;85.30
33901;DHT22;20193;49.810;6.418;2022-09-17T17:33:44;15.20;85.50
33901;DHT22;20193;49.810;6.418;2022-09-17T17:36:10;15.10;85.80
33901;DHT22;20193;49.810;6.418;2022-09-17T17:38:36;15.00;86.00
33901;DHT22;20193;49.810;6.418;2022-09-17T17:41:10;15.00;86.10
33901;DHT22;20193;49.810;6.418;2022-09-17T17:43:36;14.80;86.20
33901;DHT22;20193;49.810;6.418;2022-09-17T17:46:05;14.70;86.40
33901;DHT22;20193;49.810;6.418;2022-09-17T17:48:32;14.70;86.80
33901;DHT22;20193;49.810;6.418;2022-09-17T17:51:05;14.60;86.90
33901;DHT22;20193;49.810;6.418;2022-09-17T17:53:31;14.50;87.20
33901;DHT22;20193;49.810;6.418;2022-09-17T17:55:59;14.40;87.60
33901;DHT22;20193;49.810;6.418;2022-09-17T17:58:25;14.30;88.00
33901;DHT22;20193;49.810;6.418;2022-09-17T18:00:51;14.30;88.30
33901;DHT22;20193;49.810;6.418;2022-09-17T18:03:16;14.20;88.50
33901;DHT22;20193;49.810;6.418;2022-09-17T18:05:42;14.20;88.90
33901;DHT22;20193;49.810;6.418;2022-09-17T18:08:07;14.10;89.10
33901;DHT22;20193;49.810;6.418;2022-09-17T18:10:33;14.00;89.40
33901;DHT22;20193;49.810;6.418;2022-09-17T18:12:59;14.00;90.10
33901;DHT22;20193;49.810;6.418;2022-09-17T18:15:25;13.90;89.90
33901;DHT22;20193;49.810;6.418;2022-09-17T18:17:51;13.90;90.00
33901;DHT22;20193;49.810;6.418;2022-09-17T18:20:18;13.80;90.30
33901;DHT22;20193;49.810;6.418;2022-09-17T18:22:43;13.70;90.30
33901;DHT22;20193;49.810;6.418;2022-09-17T18:25:12;13.70;90.00
33901;DHT22;20193;49.810;6.418;2022-09-17T18:27:37;13.60;90.10
33901;DHT22;20193;49.810;6.418;2022-09-17T18:30:03;13.50;90.20
33901;DHT22;20193;49.810;6.418;2022-09-17T18:32:29;13.40;90.20
33901;DHT22;20193;49.810;6.418;2022-09-17T18:34:55;13.40;90.30
33901;DHT22;20193;49.810;6.418;2022-09-17T18:37:20;13.30;90.40
33901;DHT22;20193;49.810;6.418;2022-09-17T18:39:46;13.30;90.50
33901;DHT22;20193;49.810;6.418;2022-09-17T18:42:13;13.20;90.60
33901;DHT22;20193;49.810;6.418;2022-09-17T18:44:39;13.20;90.70
33901;DHT22;20193;49.810;6.418;2022-09-17T18:47:04;13.10;90.70